Time;durP1;ratioP1;P1;durP2;ratioP2;P2;SDS_P1;SDS_P2;PMS_P1;PMS_P2;Temp;Humidity;BMP_temperature;BMP_pressure;BME280_temperature;BME280_humidity;BME280_pressure;Samples;Min_cycle;Max_cycle;Signal;HPM_P1;HPM_P2
2023/12/22 00:00:29;;;;;;;9.30;1.40;;;;;;;14.29;53.00;100072.53;5064518;28;20071;-61
2023/12/22 00:02:54;;;;;;;4.35;1.23;;;;;;;14.31;53.02;100081.28;5081599;28;20086;-60
2023/12/22 00:05:19;;;;;;;10.45;1.42;;;;;;;14.37;51.58;100078.78;5085027;28;20051;-61
2023/12/22 00:07:45;;;;;;;10.82;1.77;;;;;;;14.43;52.02;100082.63;5081666;27;20013;-60
2023/12/22 00:10:11;;;;;;;4.55;1.20;;;;;;;14.45;52.17;100089.53;5087588;28;20411;-66
2023/12/22 00:12:38;;;;;;;5.05;1.08;;;;;;;14.48;52.80;100086.50;5094291;28;20023;-67
2023/12/22 00:15:04;;;;;;;14.35;1.73;;;;;;;14.50;51.45;100092.56;5075222;28;20024;-66
2023/12/22 00:17:30;;;;;;;6.07;1.55;;;;;;;14.58;51.31;100081.75;5073065;28;20028;-65
2023/12/22 00:19:58;;;;;;;10.48;1.85;;;;;;;14.65;52.74;100078.34;5072624;28;20506;-66
2023/12/22 00:22:25;;;;;;;11.77;1.50;;;;;;;14.65;51.60;100089.16;5072529;28;20028;-65
2023/12/22 00:24:50;;;;;;;12.00;1.48;;;;;;;14.70;51.35;100111.88;5072965;28;20145;-65
2023/12/22 00:27:15;;;;;;;9.90;1.52;;;;;;;14.69;52.08;100103.94;5072395;28;20054;-64
2023/12/22 00:29:41;;;;;;;16.35;1.60;;;;;;;14.64;52.39;100114.41;5055099;28;20020;-64
2023/12/22 00:32:09;;;;;;;4.63;0.98;;;;;;;14.57;51.96;100107.00;5072080;28;20438;-67
2023/12/22 00:34:34;;;;;;;6.10;2.15;;;;;;;14.54;52.48;100112.75;5072458;28;20021;-67
2023/12/22 00:37:00;;;;;;;11.52;1.67;;;;;;;14.53;52.54;100108.38;5073997;27;20369;-67
2023/12/22 00:39:25;;;;;;;4.82;1.50;;;;;;;14.50;52.70;100118.66;5072858;28;20033;-66
2023/12/22 00:41:51;;;;;;;6.70;1.15;;;;;;;14.47;52.85;100125.22;5073133;28;20377;-67
2023/12/22 00:44:16;;;;;;;14.55;2.10;;;;;;;14.42;51.81;100116.81;5039617;28;20480;-66
2023/12/22 00:46:42;;;;;;;7.78;1.45;;;;;;;14.45;51.50;100121.03;5073782;27;20032;-66
2023/12/22 00:49:07;;;;;;;6.60;1.55;;;;;;;14.49;52.67;100127.75;5072709;28;20119;-66
2023/12/22 00:51:32;;;;;;;10.60;1.65;;;;;;;14.50;52.26;100124.03;5073599;28;20123;-66
2023/12/22 00:53:58;;;;;;;8.40;1.40;;;;;;;14.54;52.49;100128.91;5072294;28;20098;-65
2023/12/22 00:56:23;;;;;;;11.23;1.10;;;;;;;14.57;52.21;100128.56;5072332;28;20449;-65
2023/12/22 00:58:49;;;;;;;15.23;1.55;;;;;;;14.63;52.44;100124.34;5073511;28;20028;-66
2023/12/22 01:01:14;;;;;;;9.95;1.92;;;;;;;14.70;51.31;100127.19;5073371;28;20025;-65
2023/12/22 01:03:40;;;;;;;11.88;1.83;;;;;;;14.74;51.90;100123.97;5073312;28;20032;-65
2023/12/22 01:06:05;;;;;;;5.60;1.42;;;;;;;14.83;50.58;100124.78;5071785;28;20369;-66
2023/12/22 01:08:30;;;;;;;11.23;2.00;;;;;;;14.85;51.19;100117.38;5071868;28;20028;-65
2023/12/22 01:10:56;;;;;;;12.07;2.45;;;;;;;14.88;50.65;100117.03;5073245;28;20036;-65
2023/12/22 01:13:21;;;;;;;18.63;2.17;;;;;;;14.90;51.04;100142.81;5072267;28;20044;-65
2023/12/22 01:15:46;;;;;;;7.40;1.50;;;;;;;14.94;51.00;100159.47;5073060;27;20033;-64
2023/12/22 01:18:12;;;;;;;7.25;1.10;;;;;;;14.93;50.79;100165.91;5073991;28;20039;-65
2023/12/22 01:20:38;;;;;;;8.52;1.17;;;;;;;14.84;51.79;100169.63;5073163;28;20075;-59
2023/12/22 01:23:03;;;;;;;5.18;1.33;;;;;;;14.76;51.14;100180.44;5071240;28;20036;-59
2023/12/22 01:25:29;;;;;;;4.95;1.35;;;;;;;14.64;52.48;100166.47;5071345;28;20218;-60
2023/12/22 01:27:54;;;;;;;6.63;1.83;;;;;;;14.55;51.21;100157.56;5054711;28;20107;-59
2023/12/22 01:30:19;;;;;;;5.03;1.48;;;;;;;14.45;52.06;100134.50;5054697;28;20029;-60
2023/12/22 01:32:45;;;;;;;6.80;1.45;;;;;;;14.38;52.98;100163.97;5071686;28;20024;-60
2023/12/22 01:35:10;;;;;;;6.20;1.40;;;;;;;14.33;52.20;100139.41;5072024;28;20029;-60
2023/12/22 01:37:37;;;;;;;7.82;1.08;;;;;;;14.29;52.11;100154.16;5071528;28;20024;-60
2023/12/22 01:40:04;;;;;;;16.67;1.88;;;;;;;14.27;51.57;100166.13;5071253;28;20032;-60
2023/12/22 01:42:29;;;;;;;6.10;1.42;;;;;;;14.30;52.96;100174.72;5075499;28;20032;-60
2023/12/22 01:44:55;;;;;;;11.95;2.45;;;;;;;14.29;51.40;100181.13;5075256;28;20511;-59
2023/12/22 01:47:21;;;;;;;3.45;0.70;;;;;;;14.25;52.11;100178.94;5058388;28;20028;-59
2023/12/22 01:49:47;;;;;;;7.80;1.48;;;;;;;14.29;52.51;100180.28;5074189;28;20034;-59
2023/12/22 01:52:13;;;;;;;4.57;1.00;;;;;;;14.31;52.11;100183.66;5076489;28;20056;-59
2023/12/22 01:54:38;;;;;;;8.15;1.38;;;;;;;14.38;52.40;100190.91;5075094;28;20048;-59
2023/12/22 01:57:04;;;;;;;6.85;1.65;;;;;;;14.41;51.95;100179.81;5074762;28;20082;-60
2023/12/22 01:59:34;;;;;;;6.68;2.10;;;;;;;14.44;51.96;100162.44;5057813;28;20025;-59
2023/12/22 02:02:00;;;;;;;6.35;1.33;;;;;;;14.45;51.30;100172.22;5057536;28;20115;-60
2023/12/22 02:04:26;;;;;;;9.10;1.02;;;;;;;14.48;52.15;100183.53;5068369;28;20080;-59
2023/12/22 02:06:52;;;;;;;10.38;1.40;;;;;;;14.49;50.87;100192.41;5086131;28;20101;-59
2023/12/22 02:09:17;;;;;;;8.30;1.85;;;;;;;14.48;51.43;100188.91;5074721;28;20484;-59
2023/12/22 02:11:43;;;;;;;13.20;2.28;;;;;;;14.49;51.60;100198.66;5058087;28;20116;-59
2023/12/22 02:14:08;;;;;;;7.35;2.05;;;;;;;14.51;50.83;100201.19;5075961;28;20029;-59
2023/12/22 02:16:52;;;;;;;10.63;1.98;;;;;;;14.54;51.64;100200.84;5074574;28;20037;-59
2023/12/22 02:19:32;;;;;;;9.98;1.83;;;;;;;14.60;52.14;100208.25;5074687;28;20036;-60
2023/12/22 02:22:02;;;;;;;7.93;1.52;;;;;;;14.63;51.10;100199.00;5074359;28;20033;-60
2023/12/22 02:24:30;;;;;;;6.20;1.52;;;;;;;14.66;50.93;100188.69;5074606;28;20056;-60
2023/12/22 02:27:12;;;;;;;6.05;1.55;;;;;;;14.68;51.11;100191.22;5075738;28;20032;-60
2023/12/22 02:29:47;;;;;;;6.60;1.40;;;;;;;14.69;51.88;100182.13;5074525;28;20043;-59
2023/12/22 02:32:20;;;;;;;6.32;1.10;;;;;;;14.71;51.57;100197.13;5075112;28;20381;-60
2023/12/22 02:34:47;;;;;;;5.82;1.58;;;;;;;14.71;51.65;100190.91;5074693;28;20466;-59
2023/12/22 02:37:13;;;;;;;11.13;1.48;;;;;;;14.73;50.35;100191.56;5057696;28;20055;-60
2023/12/22 02:39:39;;;;;;;6.55;1.33;;;;;;;14.72;50.80;100188.00;5057414;28;20548;-60
2023/12/22 02:42:05;;;;;;;6.95;2.03;;;;;;;14.76;51.80;100193.91;5074255;28;20094;-60
2023/12/22 02:44:31;;;;;;;6.25;0.90;;;;;;;14.76;50.09;100183.97;5075262;28;20597;-59
2023/12/22 02:46:56;;;;;;;7.70;1.40;;;;;;;14.79;50.21;100216.00;5074070;28;20037;-60
2023/12/22 02:49:22;;;;;;;9.82;0.95;;;;;;;14.81;50.16;100218.50;5073123;28;20036;-59
2023/12/22 02:51:48;;;;;;;3.03;1.20;;;;;;;14.85;50.33;100227.94;5074009;28;20488;-59
2023/12/22 02:54:14;;;;;;;6.82;1.10;;;;;;;14.83;50.40;100224.56;5055479;28;20029;-59
2023/12/22 02:56:39;;;;;;;10.93;1.40;;;;;;;14.72;50.17;100197.94;5053758;28;20527;-59
2023/12/22 02:59:04;;;;;;;11.68;2.47;;;;;;;14.66;51.02;100204.03;5053815;28;20040;-59
2023/12/22 03:01:30;;;;;;;4.20;1.02;;;;;;;14.60;51.21;100215.50;5053912;28;20112;-58
2023/12/22 03:03:55;;;;;;;5.88;0.90;;;;;;;14.57;50.90;100216.69;5053704;28;20068;-58
2023/12/22 03:06:20;;;;;;;6.75;1.00;;;;;;;14.56;50.70;100207.75;5037110;28;20037;-59
2023/12/22 03:08:46;;;;;;;8.85;1.20;;;;;;;14.55;51.43;100216.84;5053899;28;20044;-59
2023/12/22 03:11:11;;;;;;;8.80;1.33;;;;;;;14.53;50.28;100205.41;5054546;28;20093;-59
2023/12/22 03:13:36;;;;;;;3.67;1.25;;;;;;;14.57;50.22;100211.31;5055091;28;20435;-59
2023/12/22 03:16:02;;;;;;;10.80;1.48;;;;;;;14.61;50.24;100211.78;5065947;28;20123;-59
2023/12/22 03:18:27;;;;;;;4.20;0.85;;;;;;;14.63;50.47;100213.28;5074034;28;20484;-58
2023/12/22 03:20:53;;;;;;;3.60;0.80;;;;;;;14.65;51.25;100218.53;5074154;28;20400;-59
2023/12/22 03:23:18;;;;;;;6.32;1.17;;;;;;;14.64;50.44;100233.84;5074737;28;20075;-59
2023/12/22 03:25:43;;;;;;;2.33;0.93;;;;;;;14.70;50.70;100240.41;5073361;28;20025;-59
2023/12/22 03:28:09;;;;;;;12.73;1.60;;;;;;;14.68;50.99;100226.28;5056397;28;20090;-59
2023/12/22 03:30:37;;;;;;;6.35;1.33;;;;;;;14.67;50.49;100222.75;5073273;28;20035;-59
2023/12/22 03:33:03;;;;;;;5.63;0.88;;;;;;;14.70;51.08;100226.94;5073244;28;20500;-59
2023/12/22 03:35:28;;;;;;;6.28;0.95;;;;;;;14.69;50.49;100217.16;5074275;28;20043;-59
2023/12/22 03:37:54;;;;;;;6.60;1.00;;;;;;;14.72;51.33;100208.72;5072971;28;20037;-58
2023/12/22 03:40:20;;;;;;;7.15;1.10;;;;;;;14.70;50.85;100194.59;5073602;28;20075;-59
2023/12/22 03:42:46;;;;;;;5.95;0.90;;;;;;;14.75;51.35;100198.47;5072949;28;20028;-59
2023/12/22 03:45:12;;;;;;;13.48;1.33;;;;;;;14.80;49.77;100197.94;5055986;28;20043;-59
2023/12/22 03:47:38;;;;;;;5.22;1.13;;;;;;;14.79;50.94;100182.78;5074195;28;20048;-62
2023/12/22 03:50:03;;;;;;;8.40;1.30;;;;;;;14.84;50.63;100201.97;5074217;28;20037;-59
2023/12/22 03:52:29;;;;;;;6.57;1.85;;;;;;;14.89;50.78;100191.50;5074160;28;20017;-59
2023/12/22 03:54:54;;;;;;;13.48;1.15;;;;;;;14.88;50.52;100204.16;5070537;28;20044;-59
2023/12/22 03:57:20;;;;;;;11.80;2.50;;;;;;;14.91;50.91;100214.59;5052531;28;20123;-59
2023/12/22 03:59:45;;;;;;;9.90;2.97;;;;;;;14.89;50.65;100219.31;5053956;28;20017;-58
2023/12/22 04:02:11;;;;;;;9.95;1.40;;;;;;;14.86;50.17;100237.69;5053989;28;20455;-59
2023/12/22 04:04:39;;;;;;;6.07;1.50;;;;;;;14.82;51.16;100237.22;5052932;28;20029;-59
2023/12/22 04:07:05;;;;;;;9.88;1.73;;;;;;;14.81;51.24;100234.69;5052294;28;20373;-59
2023/12/22 04:09:30;;;;;;;3.53;1.23;;;;;;;14.79;49.99;100236.72;5052706;28;20039;-59
2023/12/22 04:11:55;;;;;;;8.30;1.45;;;;;;;14.73;50.28;100224.75;5058621;28;20047;-60
2023/12/22 04:14:21;;;;;;;6.80;2.05;;;;;;;14.75;50.55;100230.81;5063276;28;20024;-59
2023/12/22 04:16:47;;;;;;;11.65;2.47;;;;;;;14.75;51.71;100228.13;5080252;28;20044;-59
2023/12/22 04:19:13;;;;;;;10.90;1.95;;;;;;;14.75;50.41;100224.56;5057237;28;20430;-60
2023/12/22 04:21:39;;;;;;;5.65;1.45;;;;;;;14.77;51.22;100222.56;5073643;28;20032;-59
2023/12/22 04:24:06;;;;;;;10.95;1.98;;;;;;;14.79;50.99;100220.53;5055776;28;20033;-59
2023/12/22 04:26:33;;;;;;;5.50;1.85;;;;;;;14.81;51.39;100207.72;5065461;28;20051;-59
2023/12/22 04:28:58;;;;;;;8.68;1.55;;;;;;;14.83;50.38;100225.41;5064321;28;20024;-59
2023/12/22 04:31:23;;;;;;;12.60;2.75;;;;;;;14.85;50.17;100219.84;5055325;28;20024;-59
2023/12/22 04:33:49;;;;;;;18.70;2.25;;;;;;;14.85;50.76;100226.06;5073476;28;20021;-59
2023/12/22 04:36:14;;;;;;;10.18;2.15;;;;;;;14.88;51.67;100219.50;5071914;28;20480;-59
2023/12/22 04:38:41;;;;;;;8.27;1.50;;;;;;;14.91;50.85;100224.53;5070601;28;20112;-60
2023/12/22 04:41:06;;;;;;;8.60;1.60;;;;;;;14.92;51.25;100231.63;5071695;28;20385;-60
2023/12/22 04:43:31;;;;;;;14.43;1.33;;;;;;;14.94;50.88;100208.00;5071767;28;20017;-59
2023/12/22 04:45:57;;;;;;;9.70;1.20;;;;;;;14.99;50.52;100221.84;5071902;28;20127;-59
2023/12/22 04:48:22;;;;;;;16.02;1.75;;;;;;;15.03;50.00;100223.16;5071460;28;20081;-59
2023/12/22 04:50:47;;;;;;;13.50;2.25;;;;;;;15.05;51.17;100234.63;5072761;28;20058;-59
2023/12/22 04:53:13;;;;;;;6.78;1.33;;;;;;;15.08;49.92;100239.66;5054975;28;20120;-59
2023/12/22 04:55:39;;;;;;;11.20;1.83;;;;;;;15.06;51.17;100234.47;5073015;28;20036;-59
2023/12/22 04:58:04;;;;;;;10.25;1.58;;;;;;;15.07;50.42;100244.22;5071784;28;20090;-59
2023/12/22 05:00:29;;;;;;;14.95;1.73;;;;;;;15.11;51.27;100237.47;5071974;28;20036;-59
2023/12/22 05:02:55;;;;;;;12.15;1.33;;;;;;;15.14;50.39;100242.53;5072203;28;20092;-59
2023/12/22 05:05:20;;;;;;;9.52;1.88;;;;;;;15.18;51.04;100229.53;5074101;28;20091;-59
2023/12/22 05:07:46;;;;;;;4.47;0.70;;;;;;;15.19;50.66;100228.50;5055962;28;20503;-59
2023/12/22 05:10:12;;;;;;;10.40;1.60;;;;;;;15.24;50.07;100231.56;5072776;28;20032;-59
2023/12/22 05:12:37;;;;;;;9.57;1.85;;;;;;;15.25;49.41;100230.53;5070293;28;20029;-59
2023/12/22 05:15:03;;;;;;;8.20;1.50;;;;;;;15.30;50.52;100240.81;5072766;28;20586;-60
2023/12/22 05:17:29;;;;;;;9.40;1.75;;;;;;;15.33;50.36;100251.22;5070950;28;20104;-59
2023/12/22 05:19:54;;;;;;;7.28;1.90;;;;;;;15.30;50.91;100248.91;5054658;28;20048;-59
2023/12/22 05:22:20;;;;;;;6.10;1.13;;;;;;;15.25;50.80;100260.19;5071371;28;20036;-60
2023/12/22 05:24:45;;;;;;;7.63;1.30;;;;;;;15.20;51.08;100270.69;5072642;28;20388;-59
2023/12/22 05:27:11;;;;;;;8.85;1.80;;;;;;;15.13;51.27;100259.72;5072618;28;20078;-59
2023/12/22 05:29:36;;;;;;;9.73;2.10;;;;;;;15.08;51.13;100266.66;5054531;28;20035;-59
2023/12/22 05:32:01;;;;;;;17.75;1.95;;;;;;;15.03;51.24;100271.72;5071515;28;20060;-60
2023/12/22 05:34:28;;;;;;;16.35;2.42;;;;;;;15.08;51.43;100262.09;5071401;28;20476;-59
2023/12/22 05:36:54;;;;;;;12.52;2.60;;;;;;;15.07;51.01;100240.72;5071204;28;20051;-60
2023/12/22 05:39:20;;;;;;;9.73;2.90;;;;;;;15.13;50.19;100246.22;5071004;28;20029;-59
2023/12/22 05:41:45;;;;;;;16.05;2.63;;;;;;;15.17;50.54;100262.94;5071459;28;20441;-59
2023/12/22 05:44:10;;;;;;;13.77;2.35;;;;;;;15.22;50.37;100259.69;5053516;28;20124;-59
2023/12/22 05:46:39;;;;;;;12.25;2.75;;;;;;;15.19;50.73;100258.19;5053289;28;20504;-59
2023/12/22 05:49:04;;;;;;;14.68;2.47;;;;;;;15.14;50.04;100249.78;5054562;28;20029;-59
2023/12/22 05:51:38;;;;;;;19.45;2.42;;;;;;;15.14;50.11;100233.59;5070966;28;20031;-60
2023/12/22 05:54:05;;;;;;;9.48;1.42;;;;;;;15.13;51.95;100234.63;5072349;28;20036;-60
2023/12/22 05:56:30;;;;;;;19.13;2.47;;;;;;;15.12;50.33;100233.78;5070808;28;20059;-60
2023/12/22 05:58:56;;;;;;;14.05;2.13;;;;;;;15.11;50.72;100233.94;5071014;28;20052;-60
2023/12/22 06:01:21;;;;;;;13.30;2.00;;;;;;;15.16;50.73;100228.84;5054521;28;20036;-60
2023/12/22 06:03:47;;;;;;;11.70;3.10;;;;;;;15.13;50.81;100226.53;5071106;28;20048;-60
2023/12/22 06:06:12;;;;;;;11.52;2.30;;;;;;;15.13;50.45;100245.41;5054382;28;20086;-60
2023/12/22 06:08:38;;;;;;;13.68;3.45;;;;;;;15.12;51.34;100244.56;5069761;28;20373;-60
2023/12/22 06:11:04;;;;;;;13.82;2.60;;;;;;;15.17;50.18;100273.72;5071078;28;20559;-59
2023/12/22 06:13:29;;;;;;;9.35;2.03;;;;;;;15.18;50.55;100261.91;5054503;28;20515;-59
2023/12/22 06:15:54;;;;;;;13.27;3.25;;;;;;;15.19;52.04;100268.97;5072600;28;20085;-60
2023/12/22 06:18:20;;;;;;;9.07;1.65;;;;;;;15.21;51.19;100261.56;5072543;28;20033;-60
2023/12/22 06:20:48;;;;;;;12.68;2.22;;;;;;;15.24;51.33;100272.03;5070902;28;20097;-59
2023/12/22 06:23:13;;;;;;;21.08;2.78;;;;;;;15.26;50.64;100256.50;5061256;28;20048;-59
2023/12/22 06:25:38;;;;;;;14.23;2.78;;;;;;;15.29;50.68;100256.16;5051656;28;20033;-59
2023/12/22 06:28:04;;;;;;;13.15;2.40;;;;;;;15.31;51.46;100254.13;5052133;28;20036;-59
2023/12/22 06:30:30;;;;;;;14.43;3.17;;;;;;;15.34;50.66;100247.53;5052497;28;20036;-59
2023/12/22 06:32:56;;;;;;;19.25;2.60;;;;;;;15.35;51.22;100254.63;5054385;28;20029;-59
2023/12/22 06:35:23;;;;;;;22.80;3.70;;;;;;;15.32;50.66;100249.56;5054514;28;20037;-59
2023/12/22 06:37:49;;;;;;;21.42;2.78;;;;;;;15.35;50.47;100250.06;5055663;28;20029;-59
2023/12/22 06:40:18;;;;;;;20.35;2.97;;;;;;;15.35;50.27;100250.06;5053260;28;20160;-59
2023/12/22 06:42:44;;;;;;;16.90;3.38;;;;;;;15.38;50.52;100248.88;5053974;28;20033;-59
2023/12/22 06:45:12;;;;;;;19.25;3.20;;;;;;;15.38;50.51;100255.09;5037365;28;20527;-59
2023/12/22 06:47:37;;;;;;;20.58;2.63;;;;;;;15.37;51.78;100247.19;5054178;28;20037;-58
2023/12/22 06:50:03;;;;;;;12.02;3.40;;;;;;;15.37;50.78;100252.56;5055113;28;20044;-57
2023/12/22 06:52:30;;;;;;;16.20;2.65;;;;;;;15.36;51.60;100256.28;5054695;28;20036;-59
2023/12/22 06:54:55;;;;;;;18.75;3.10;;;;;;;15.35;51.83;100258.16;5053899;28;20049;-58
2023/12/22 06:57:21;;;;;;;27.50;3.00;;;;;;;15.37;51.90;100272.31;5053758;28;20076;-57
2023/12/22 06:59:48;;;;;;;13.50;2.97;;;;;;;15.37;51.35;100264.22;5054983;28;20035;-57
2023/12/22 07:02:14;;;;;;;21.42;3.88;;;;;;;15.41;50.69;100262.84;5037451;28;20029;-57
2023/12/22 07:04:39;;;;;;;11.27;2.90;;;;;;;15.36;51.40;100267.94;5055044;28;20040;-57
2023/12/22 07:07:04;;;;;;;14.27;3.30;;;;;;;15.43;50.68;100268.94;5053660;28;20113;-57
2023/12/22 07:09:30;;;;;;;17.92;3.88;;;;;;;15.41;51.42;100272.81;5055066;28;20029;-57
2023/12/22 07:11:56;;;;;;;19.92;2.75;;;;;;;15.40;50.85;100285.47;5036795;28;20052;-57
2023/12/22 07:14:22;;;;;;;13.63;2.58;;;;;;;15.40;50.53;100271.13;5054980;28;20048;-57
2023/12/22 07:16:47;;;;;;;20.77;2.70;;;;;;;15.38;51.23;100271.28;5054782;28;20500;-56
2023/12/22 07:19:13;;;;;;;13.80;2.47;;;;;;;15.40;50.82;100274.66;5053453;28;20082;-57
2023/12/22 07:21:39;;;;;;;28.30;3.70;;;;;;;15.42;50.63;100272.63;5054623;28;20029;-57
2023/12/22 07:24:05;;;;;;;24.33;3.78;;;;;;;15.42;51.20;100267.22;5036583;28;20107;-57
2023/12/22 07:26:30;;;;;;;17.80;3.30;;;;;;;15.44;51.07;100284.09;5036742;28;20029;-58
2023/12/22 07:28:56;;;;;;;13.15;3.08;;;;;;;15.46;50.21;100270.44;5053411;28;20033;-58
2023/12/22 07:31:22;;;;;;;17.45;3.13;;;;;;;15.49;50.60;100270.97;5036827;28;20041;-58
2023/12/22 07:33:47;;;;;;;18.23;3.80;;;;;;;15.49;50.70;100270.97;5054697;28;20056;-58
2023/12/22 07:36:12;;;;;;;16.48;3.33;;;;;;;15.51;51.63;100271.63;5036821;28;20120;-57
2023/12/22 07:38:41;;;;;;;14.68;3.20;;;;;;;15.52;51.87;100267.06;5053749;28;20099;-57
2023/12/22 07:41:07;;;;;;;13.93;3.28;;;;;;;15.52;50.12;100267.88;5053334;28;20048;-57
2023/12/22 07:43:32;;;;;;;19.95;2.97;;;;;;;15.52;51.46;100275.19;5053100;28;20046;-57
2023/12/22 07:45:58;;;;;;;14.63;2.33;;;;;;;15.50;50.79;100275.34;5054350;28;20112;-57
2023/12/22 07:48:23;;;;;;;14.02;2.63;;;;;;;15.50;50.96;100264.53;5036350;28;20123;-57
2023/12/22 07:50:49;;;;;;;17.63;2.63;;;;;;;15.50;50.55;100280.72;5053043;28;20037;-57
2023/12/22 07:53:14;;;;;;;19.85;3.78;;;;;;;15.49;51.49;100287.16;5053005;28;20025;-57
2023/12/22 07:55:40;;;;;;;12.70;2.92;;;;;;;15.50;51.38;100283.44;5054292;28;20113;-57
2023/12/22 07:58:05;;;;;;;15.75;2.70;;;;;;;15.45;51.37;100277.69;5051580;28;20451;-58
2023/12/22 08:00:31;;;;;;;20.27;3.55;;;;;;;15.43;51.15;100274.31;5036070;28;20071;-57
2023/12/22 08:02:57;;;;;;;18.10;2.67;;;;;;;15.41;52.16;100275.53;5052544;28;20055;-58
2023/12/22 08:05:22;;;;;;;26.38;3.13;;;;;;;15.37;51.30;100276.88;5052703;28;20496;-57
2023/12/22 08:07:48;;;;;;;18.15;3.30;;;;;;;15.38;51.70;100282.06;5053584;28;20032;-57
2023/12/22 08:10:13;;;;;;;20.65;3.03;;;;;;;15.36;50.91;100267.94;5052521;28;20033;-57
2023/12/22 08:12:39;;;;;;;12.85;2.85;;;;;;;15.32;51.79;100253.13;5052442;28;20025;-57
2023/12/22 08:15:05;;;;;;;14.68;2.75;;;;;;;15.29;51.73;100239.97;5061534;28;20052;-57
2023/12/22 08:17:31;;;;;;;16.58;3.47;;;;;;;15.31;51.43;100250.56;5072402;28;20416;-58
2023/12/22 08:19:56;;;;;;;17.58;2.60;;;;;;;15.33;50.86;100254.78;5072794;28;20040;-57
2023/12/22 08:22:22;;;;;;;21.92;2.75;;;;;;;15.31;51.98;100267.59;5055555;28;20032;-57
2023/12/22 08:24:48;;;;;;;9.77;2.90;;;;;;;15.33;52.62;100272.81;5072210;28;20036;-57
2023/12/22 08:27:13;;;;;;;21.05;3.20;;;;;;;15.31;51.48;100273.00;5072360;28;20026;-57
2023/12/22 08:29:38;;;;;;;21.02;2.80;;;;;;;15.33;51.36;100272.81;5072811;28;20036;-57
2023/12/22 08:32:04;;;;;;;13.32;2.17;;;;;;;15.34;51.76;100261.88;5057390;28;20028;-57
2023/12/22 08:34:29;;;;;;;20.80;3.35;;;;;;;15.37;51.90;100263.38;5075213;28;20063;-57
2023/12/22 08:36:55;;;;;;;13.02;2.17;;;;;;;15.40;51.13;100276.53;5072582;28;20162;-57
2023/12/22 08:39:20;;;;;;;13.43;2.10;;;;;;;15.42;51.98;100269.94;5072213;28;20044;-57
2023/12/22 08:41:46;;;;;;;9.10;3.30;;;;;;;15.46;51.68;100274.00;5073399;28;20067;-57
2023/12/22 08:44:16;;;;;;;12.15;2.40;;;;;;;15.45;51.91;100271.44;5075450;28;20056;-57
2023/12/22 08:46:41;;;;;;;31.23;8.40;;;;;;;15.49;51.13;100268.28;5077419;28;20035;-57
2023/12/22 08:49:07;;;;;;;16.00;5.00;;;;;;;15.51;52.06;100268.94;5078313;28;20032;-57
2023/12/22 08:51:33;;;;;;;16.48;4.55;;;;;;;15.53;52.21;100274.13;5074456;28;20037;-57
2023/12/22 08:53:59;;;;;;;24.88;4.70;;;;;;;15.53;52.27;100269.59;5074065;28;20024;-57
2023/12/22 08:56:25;;;;;;;23.48;6.68;;;;;;;15.57;51.56;100248.50;5054863;28;20047;-57
2023/12/22 08:58:59;;;;;;;11.73;3.47;;;;;;;15.64;52.13;100253.00;5071723;28;20496;-57
2023/12/22 09:01:24;;;;;;;21.55;4.95;;;;;;;15.68;52.71;100240.84;5071641;28;20041;-57
2023/12/22 09:03:50;;;;;;;31.70;7.72;;;;;;;15.71;51.14;100250.44;5054820;28;20086;-58
2023/12/22 09:06:16;;;;;;;17.77;6.10;;;;;;;15.73;51.37;100243.84;5071539;28;20035;-58
2023/12/22 09:08:42;;;;;;;11.18;2.55;;;;;;;15.70;51.21;100248.75;5072888;28;20040;-57
2023/12/22 09:11:08;;;;;;;5.93;2.30;;;;;;;15.71;51.57;100245.91;5071562;28;20044;-57
2023/12/22 09:13:35;;;;;;;11.80;3.20;;;;;;;15.70;52.23;100233.41;5072948;28;20028;-58
2023/12/22 09:16:01;;;;;;;8.00;2.42;;;;;;;15.67;51.97;100228.34;5054805;28;20495;-58
2023/12/22 09:18:26;;;;;;;6.93;2.17;;;;;;;15.64;52.45;100228.69;5070889;28;20032;-58
2023/12/22 09:20:51;;;;;;;5.03;1.33;;;;;;;15.64;52.22;100223.31;5071513;28;20036;-58
2023/12/22 09:23:17;;;;;;;10.82;1.60;;;;;;;15.62;52.75;100211.84;5072730;28;20039;-58
2023/12/22 09:25:42;;;;;;;5.80;1.35;;;;;;;15.65;52.55;100218.75;5071312;28;20059;-58
2023/12/22 09:28:07;;;;;;;4.93;1.60;;;;;;;15.62;52.23;100214.53;5071361;28;20036;-58
2023/12/22 09:30:33;;;;;;;3.85;1.35;;;;;;;15.57;52.40;100206.13;5071392;28;20082;-58
2023/12/22 09:32:58;;;;;;;2.75;1.40;;;;;;;15.59;53.61;100220.28;5071373;28;20035;-59
2023/12/22 09:35:26;;;;;;;8.55;1.27;;;;;;;15.57;53.11;100216.09;5072769;28;20036;-58
2023/12/22 09:37:51;;;;;;;5.68;1.02;;;;;;;15.57;52.76;100218.78;5071494;28;20043;-58
2023/12/22 09:40:17;;;;;;;7.07;1.35;;;;;;;15.57;52.72;100227.75;5071617;28;20119;-59
2023/12/22 09:42:43;;;;;;;3.72;1.17;;;;;;;15.57;53.28;100219.63;5071384;28;20037;-58
2023/12/22 09:45:11;;;;;;;5.45;1.23;;;;;;;15.58;53.29;100212.34;5071446;28;20120;-58
2023/12/22 09:47:37;;;;;;;5.18;1.48;;;;;;;15.55;53.56;100223.53;5071235;28;20514;-58
2023/12/22 09:50:05;;;;;;;6.70;2.53;;;;;;;15.52;52.23;100219.31;5071233;28;20040;-58
2023/12/22 09:52:31;;;;;;;4.32;1.30;;;;;;;15.47;53.99;100216.28;5071251;28;20033;-59
2023/12/22 09:54:57;;;;;;;5.25;1.05;;;;;;;15.45;53.73;100218.31;5071425;28;20082;-59
2023/12/22 09:57:24;;;;;;;3.50;0.95;;;;;;;15.43;52.78;100214.94;5070773;28;20052;-63
2023/12/22 09:59:51;;;;;;;4.63;0.95;;;;;;;15.39;53.78;100210.06;5071360;28;20511;-59
2023/12/22 10:02:17;;;;;;;3.60;0.88;;;;;;;15.40;52.75;100218.00;5072242;28;20027;-58
2023/12/22 10:04:42;;;;;;;2.38;0.70;;;;;;;15.40;53.74;100218.00;5075166;28;20029;-59
2023/12/22 10:07:09;;;;;;;3.95;1.55;;;;;;;15.40;53.68;100215.28;5058437;28;20506;-59
2023/12/22 10:09:36;;;;;;;4.13;0.80;;;;;;;15.41;53.77;100203.47;5058246;28;20024;-59
2023/12/22 10:12:03;;;;;;;1.90;0.95;;;;;;;15.45;54.30;100214.75;5074698;28;20036;-58
2023/12/22 10:14:29;;;;;;;1.58;0.80;;;;;;;15.49;53.83;100214.28;5074756;28;20044;-59
2023/12/22 10:16:56;;;;;;;2.38;0.85;;;;;;;15.58;54.43;100197.00;5058294;28;20059;-59
2023/12/22 10:19:21;;;;;;;1.05;0.95;;;;;;;15.65;53.54;100203.41;5075365;28;20021;-58
2023/12/22 10:21:48;;;;;;;2.78;0.70;;;;;;;15.71;53.91;100200.00;5075433;28;20085;-58
2023/12/22 10:24:39;;;;;;;3.72;0.85;;;;;;;15.78;53.19;100204.66;5076086;28;20028;-58
2023/12/22 10:27:05;;;;;;;1.88;0.98;;;;;;;15.81;54.08;100213.25;5074774;28;20029;-58
2023/12/22 10:29:32;;;;;;;1.88;0.70;;;;;;;15.89;54.34;100204.25;5058105;28;20067;-58
2023/12/22 10:31:57;;;;;;;1.20;0.95;;;;;;;16.00;54.42;100195.72;5074855;28;20388;-58
2023/12/22 10:34:23;;;;;;;4.43;0.98;;;;;;;16.11;53.30;100185.34;5076240;28;20036;-58
2023/12/22 10:36:49;;;;;;;0.73;0.68;;;;;;;16.30;54.20;100184.03;5076561;28;20120;-61
2023/12/22 10:39:15;;;;;;;1.55;0.60;;;;;;;16.39;54.19;100174.81;5058495;28;20047;-58
2023/12/22 10:41:40;;;;;;;1.20;0.82;;;;;;;16.44;53.43;100180.53;5058593;28;20062;-58
2023/12/22 10:44:06;;;;;;;0.55;0.47;;;;;;;16.48;54.42;100183.69;5075997;28;20437;-58
2023/12/22 10:46:33;;;;;;;1.98;0.80;;;;;;;16.47;53.92;100180.16;5057838;28;20067;-57
2023/12/22 10:48:59;;;;;;;0.82;0.57;;;;;;;16.45;54.35;100179.50;5076021;28;20112;-58
2023/12/22 10:51:25;;;;;;;2.72;0.60;;;;;;;16.47;54.22;100173.94;5074525;28;20036;-58
2023/12/22 10:53:51;;;;;;;3.47;0.60;;;;;;;16.55;54.37;100177.44;5075678;28;20492;-58
2023/12/22 10:56:17;;;;;;;1.33;0.50;;;;;;;16.56;53.47;100165.56;5074145;28;20068;-57
2023/12/22 10:58:42;;;;;;;3.80;0.50;;;;;;;16.64;54.03;100184.41;5074289;28;20381;-58
2023/12/22 11:01:09;;;;;;;1.75;0.63;;;;;;;16.66;53.42;100182.38;5074147;28;20107;-58
2023/12/22 11:03:38;;;;;;;1.92;0.77;;;;;;;16.75;54.08;100170.44;5074118;28;20043;-58
2023/12/22 11:06:06;;;;;;;0.65;0.50;;;;;;;16.78;54.30;100180.03;5075922;28;20112;-58
2023/12/22 11:08:34;;;;;;;2.15;1.15;;;;;;;16.79;53.90;100169.06;5074188;28;20040;-58
2023/12/22 11:11:07;;;;;;;0.75;0.50;;;;;;;16.81;53.63;100168.84;5039786;28;20052;-57
2023/12/22 11:13:33;;;;;;;3.70;0.63;;;;;;;16.85;53.84;100179.13;5053506;28;20025;-57
2023/12/22 11:15:59;;;;;;;4.22;0.77;;;;;;;16.89;53.51;100172.31;5054805;28;20060;-58